sensor_id;sensor_type;location;lat;lon;timestamp;pressure;altitude;pressure_sealevel;temperature;humidity
63088;BME280;49173;43.164;27.786;2022-11-18T00:01:23;99490.44;;;10.89;80.23
63088;BME280;49173;43.164;27.786;2022-11-18T00:03:49;99487.88;;;10.88;80.34
63088;BME280;49173;43.164;27.786;2022-11-18T00:06:18;99487.13;;;10.86;80.17
63088;BME280;49173;43.164;27.786;2022-11-18T00:08:44;99481.84;;;10.84;80.20
63088;BME280;49173;43.164;27.786;2022-11-18T00:11:12;99479.16;;;10.84;80.29
63088;BME280;49173;43.164;27.786;2022-11-18T00:13:58;99479.50;;;10.80;80.17
63088;BME280;49173;43.164;27.786;2022-11-18T00:16:42;99484.09;;;10.78;80.29
63088;BME280;49173;43.164;27.786;2022-11-18T00:19:09;99488.63;;;10.77;80.14
63088;BME280;49173;43.164;27.786;2022-11-18T00:21:35;99490.44;;;10.77;80.38
63088;BME280;49173;43.164;27.786;2022-11-18T00:24:02;99481.75;;;10.73;80.64
63088;BME280;49173;43.164;27.786;2022-11-18T00:26:27;99502.13;;;10.63;80.66
63088;BME280;49173;43.164;27.786;2022-11-18T00:28:53;99500.84;;;10.56;80.78
63088;BME280;49173;43.164;27.786;2022-11-18T00:31:19;99496.00;;;10.48;80.98
63088;BME280;49173;43.164;27.786;2022-11-18T00:33:45;99504.69;;;10.39;81.22
63088;BME280;49173;43.164;27.786;2022-11-18T00:36:11;99507.91;;;10.44;81.52
63088;BME280;49173;43.164;27.786;2022-11-18T00:38:38;99503.19;;;10.48;81.51
63088;BME280;49173;43.164;27.786;2022-11-18T00:41:12;99505.69;;;10.51;81.40
63088;BME280;49173;43.164;27.786;2022-11-18T00:43:38;99509.09;;;10.53;81.02
63088;BME280;49173;43.164;27.786;2022-11-18T00:46:05;99524.22;;;10.54;80.65
63088;BME280;49173;43.164;27.786;2022-11-18T00:48:31;99504.38;;;10.56;81.00
63088;BME280;49173;43.164;27.786;2022-11-18T00:51:05;99509.66;;;10.58;81.16
63088;BME280;49173;43.164;27.786;2022-11-18T00:53:31;99507.84;;;10.58;81.09
63088;BME280;49173;43.164;27.786;2022-11-18T00:55:56;99500.53;;;10.60;81.35
63088;BME280;49173;43.164;27.786;2022-11-18T00:58:22;99501.50;;;10.59;81.13
63088;BME280;49173;43.164;27.786;2022-11-18T01:00:50;99494.50;;;10.57;81.32
63088;BME280;49173;43.164;27.786;2022-11-18T01:03:17;99506.31;;;10.54;81.28
63088;BME280;49173;43.164;27.786;2022-11-18T01:05:43;99505.56;;;10.52;80.72
63088;BME280;49173;43.164;27.786;2022-11-18T01:08:10;99499.22;;;10.53;80.97
63088;BME280;49173;43.164;27.786;2022-11-18T01:10:37;99505.69;;;10.51;80.67
63088;BME280;49173;43.164;27.786;2022-11-18T01:13:05;99497.81;;;10.48;80.56
63088;BME280;49173;43.164;27.786;2022-11-18T01:15:51;99502.44;;;10.45;80.51
63088;BME280;49173;43.164;27.786;2022-11-18T01:18:19;99509.81;;;10.42;80.60
63088;BME280;49173;43.164;27.786;2022-11-18T01:20:45;99501.03;;;10.40;80.36
63088;BME280;49173;43.164;27.786;2022-11-18T01:23:12;99496.75;;;10.37;80.39
63088;BME280;49173;43.164;27.786;2022-11-18T01:25:40;99491.78;;;10.31;80.50
63088;BME280;49173;43.164;27.786;2022-11-18T01:28:06;99496.31;;;10.31;80.26
63088;BME280;49173;43.164;27.786;2022-11-18T01:30:36;99487.47;;;10.29;80.29
63088;BME280;49173;43.164;27.786;2022-11-18T01:33:03;99487.47;;;10.29;80.16
63088;BME280;49173;43.164;27.786;2022-11-18T01:35:34;99494.88;;;10.25;80.00
63088;BME280;49173;43.164;27.786;2022-11-18T01:38:01;99495.16;;;10.21;80.37
63088;BME280;49173;43.164;27.786;2022-11-18T01:40:26;99506.84;;;10.19;80.39
63088;BME280;49173;43.164;27.786;2022-11-18T01:42:54;99507.91;;;10.17;80.45
63088;BME280;49173;43.164;27.786;2022-11-18T01:45:32;99502.75;;;10.14;80.40
63088;BME280;49173;43.164;27.786;2022-11-18T01:48:14;99500.19;;;10.12;80.54
63088;BME280;49173;43.164;27.786;2022-11-18T01:50:58;99507.47;;;10.10;80.43
63088;BME280;49173;43.164;27.786;2022-11-18T01:53:28;99499.63;;;10.07;80.26
63088;BME280;49173;43.164;27.786;2022-11-18T01:55:59;99501.44;;;10.07;80.55
63088;BME280;49173;43.164;27.786;2022-11-18T01:58:43;99500.81;;;10.03;80.42
63088;BME280;49173;43.164;27.786;2022-11-18T02:01:10;99493.06;;;9.99;80.35
63088;BME280;49173;43.164;27.786;2022-11-18T02:03:36;99493.28;;;9.96;80.49
63088;BME280;49173;43.164;27.786;2022-11-18T02:06:04;99496.13;;;9.93;80.75
63088;BME280;49173;43.164;27.786;2022-11-18T02:08:31;99500.75;;;9.90;81.19
63088;BME280;49173;43.164;27.786;2022-11-18T02:11:02;99495.28;;;9.92;81.49
63088;BME280;49173;43.164;27.786;2022-11-18T02:13:29;99494.81;;;9.85;81.64
63088;BME280;49173;43.164;27.786;2022-11-18T02:18:54;99503.19;;;9.81;81.69
63088;BME280;49173;43.164;27.786;2022-11-18T02:24:32;99498.00;;;9.78;81.88
63088;BME280;49173;43.164;27.786;2022-11-18T02:27:12;99493.81;;;9.74;82.12
63088;BME280;49173;43.164;27.786;2022-11-18T02:32:25;99490.28;;;9.73;82.52
63088;BME280;49173;43.164;27.786;2022-11-18T02:35:06;99481.28;;;9.74;82.53
63088;BME280;49173;43.164;27.786;2022-11-18T02:37:39;99481.19;;;9.76;82.43
63088;BME280;49173;43.164;27.786;2022-11-18T02:40:29;99484.06;;;9.73;82.51
63088;BME280;49173;43.164;27.786;2022-11-18T02:43:20;99494.97;;;9.70;82.55
63088;BME280;49173;43.164;27.786;2022-11-18T02:45:52;99490.88;;;9.64;82.66
63088;BME280;49173;43.164;27.786;2022-11-18T02:48:23;99493.88;;;9.59;82.72
63088;BME280;49173;43.164;27.786;2022-11-18T02:50:51;99495.75;;;9.57;82.80
63088;BME280;49173;43.164;27.786;2022-11-18T02:53:20;99498.75;;;9.53;83.09
63088;BME280;49173;43.164;27.786;2022-11-18T02:55:47;99497.03;;;9.52;83.18
63088;BME280;49173;43.164;27.786;2022-11-18T02:58:16;99499.72;;;9.52;83.35
63088;BME280;49173;43.164;27.786;2022-11-18T03:00:43;99500.59;;;9.52;83.41
63088;BME280;49173;43.164;27.786;2022-11-18T03:03:31;99499.50;;;9.55;83.52
63088;BME280;49173;43.164;27.786;2022-11-18T03:06:13;99494.03;;;9.56;83.38
63088;BME280;49173;43.164;27.786;2022-11-18T03:11:24;99500.72;;;9.63;83.37
63088;BME280;49173;43.164;27.786;2022-11-18T03:19:59;99501.41;;;9.67;82.66
63088;BME280;49173;43.164;27.786;2022-11-18T03:22:34;99505.03;;;9.66;82.46
63088;BME280;49173;43.164;27.786;2022-11-18T03:25:03;99501.28;;;9.69;82.75
63088;BME280;49173;43.164;27.786;2022-11-18T03:27:35;99512.88;;;9.69;82.48
63088;BME280;49173;43.164;27.786;2022-11-18T03:30:12;99509.22;;;9.70;82.69
63088;BME280;49173;43.164;27.786;2022-11-18T03:32:43;99505.50;;;9.73;82.59
63088;BME280;49173;43.164;27.786;2022-11-18T03:35:22;99500.16;;;9.73;82.58
63088;BME280;49173;43.164;27.786;2022-11-18T03:37:51;99505.69;;;9.70;82.38
63088;BME280;49173;43.164;27.786;2022-11-18T03:40:24;99511.91;;;9.70;82.70
63088;BME280;49173;43.164;27.786;2022-11-18T03:42:56;99508.47;;;9.68;82.54
63088;BME280;49173;43.164;27.786;2022-11-18T03:45:28;99503.97;;;9.69;82.41
63088;BME280;49173;43.164;27.786;2022-11-18T03:48:19;99505.91;;;9.67;81.87
63088;BME280;49173;43.164;27.786;2022-11-18T03:50:53;99500.94;;;9.60;82.01
63088;BME280;49173;43.164;27.786;2022-11-18T03:53:22;99494.84;;;9.58;82.08
63088;BME280;49173;43.164;27.786;2022-11-18T03:55:53;99497.78;;;9.54;81.82
63088;BME280;49173;43.164;27.786;2022-11-18T03:58:32;99499.03;;;9.48;82.16
63088;BME280;49173;43.164;27.786;2022-11-18T04:01:13;99502.00;;;9.44;82.24
63088;BME280;49173;43.164;27.786;2022-11-18T04:03:41;99497.63;;;9.43;82.07
63088;BME280;49173;43.164;27.786;2022-11-18T04:08:48;99496.28;;;9.35;82.36
63088;BME280;49173;43.164;27.786;2022-11-18T04:11:23;99493.59;;;9.35;82.54
63088;BME280;49173;43.164;27.786;2022-11-18T04:14:08;99496.28;;;9.35;82.64
63088;BME280;49173;43.164;27.786;2022-11-18T04:16:42;99498.22;;;9.33;82.61
63088;BME280;49173;43.164;27.786;2022-11-18T04:19:09;99501.09;;;9.30;82.97
63088;BME280;49173;43.164;27.786;2022-11-18T04:21:35;99504.81;;;9.28;83.08
63088;BME280;49173;43.164;27.786;2022-11-18T04:24:01;99504.22;;;9.23;82.58
63088;BME280;49173;43.164;27.786;2022-11-18T04:26:27;99505.41;;;9.19;82.27
63088;BME280;49173;43.164;27.786;2022-11-18T04:28:53;99507.72;;;9.11;82.05
63088;BME280;49173;43.164;27.786;2022-11-18T04:31:18;99511.13;;;8.98;81.94
63088;BME280;49173;43.164;27.786;2022-11-18T04:33:44;99516.00;;;8.92;82.28
63088;BME280;49173;43.164;27.786;2022-11-18T04:36:10;99517.13;;;8.88;82.51
63088;BME280;49173;43.164;27.786;2022-11-18T04:38:35;99527.19;;;8.84;82.75
63088;BME280;49173;43.164;27.786;2022-11-18T04:41:01;99524.78;;;8.79;82.70
63088;BME280;49173;43.164;27.786;2022-11-18T04:43:27;99524.22;;;8.74;82.54
63088;BME280;49173;43.164;27.786;2022-11-18T04:45:52;99520.84;;;8.71;82.94
63088;BME280;49173;43.164;27.786;2022-11-18T04:48:18;99519.41;;;8.65;83.27
63088;BME280;49173;43.164;27.786;2022-11-18T04:50:44;99528.59;;;8.61;83.97
63088;BME280;49173;43.164;27.786;2022-11-18T04:53:09;99529.25;;;8.65;84.33
63088;BME280;49173;43.164;27.786;2022-11-18T04:55:36;99540.72;;;8.67;84.23
63088;BME280;49173;43.164;27.786;2022-11-18T04:58:02;99541.59;;;8.67;84.38
63088;BME280;49173;43.164;27.786;2022-11-18T05:00:28;99551.59;;;8.64;84.28
63088;BME280;49173;43.164;27.786;2022-11-18T05:02:53;99548.06;;;8.63;84.27
63088;BME280;49173;43.164;27.786;2022-11-18T05:05:19;99551.81;;;8.61;84.10
63088;BME280;49173;43.164;27.786;2022-11-18T05:07:45;99543.94;;;8.58;84.04
63088;BME280;49173;43.164;27.786;2022-11-18T05:10:11;99539.28;;;8.61;84.83
63088;BME280;49173;43.164;27.786;2022-11-18T05:12:37;99540.25;;;8.60;85.18
63088;BME280;49173;43.164;27.786;2022-11-18T05:15:19;99551.50;;;8.65;85.55
63088;BME280;49173;43.164;27.786;2022-11-18T05:17:46;99549.63;;;8.67;85.77
63088;BME280;49173;43.164;27.786;2022-11-18T05:20:12;99551.41;;;8.67;85.75
63088;BME280;49173;43.164;27.786;2022-11-18T05:22:39;99550.56;;;8.66;85.55
63088;BME280;49173;43.164;27.786;2022-11-18T05:25:05;99546.94;;;8.67;85.75
63088;BME280;49173;43.164;27.786;2022-11-18T05:27:31;99547.88;;;8.66;85.99
63088;BME280;49173;43.164;27.786;2022-11-18T05:29:57;99543.97;;;8.72;85.93
63088;BME280;49173;43.164;27.786;2022-11-18T05:32:23;99564.25;;;8.76;85.82
63088;BME280;49173;43.164;27.786;2022-11-18T05:34:49;99557.09;;;8.76;85.97
63088;BME280;49173;43.164;27.786;2022-11-18T05:37:15;99557.75;;;8.80;85.91
63088;BME280;49173;43.164;27.786;2022-11-18T05:39:41;99554.78;;;8.85;86.01
63088;BME280;49173;43.164;27.786;2022-11-18T05:42:07;99550.31;;;8.85;86.38
63088;BME280;49173;43.164;27.786;2022-11-18T05:44:52;99549.25;;;8.88;86.43
63088;BME280;49173;43.164;27.786;2022-11-18T05:47:18;99548.22;;;8.90;86.53
63088;BME280;49173;43.164;27.786;2022-11-18T05:49:44;99542.66;;;8.93;86.42
63088;BME280;49173;43.164;27.786;2022-11-18T05:52:10;99550.59;;;8.95;86.58
63088;BME280;49173;43.164;27.786;2022-11-18T05:54:41;99553.19;;;8.96;86.79
63088;BME280;49173;43.164;27.786;2022-11-18T05:57:12;99556.63;;;8.98;86.85
63088;BME280;49173;43.164;27.786;2022-11-18T05:59:38;99551.28;;;8.98;86.95
63088;BME280;49173;43.164;27.786;2022-11-18T06:02:09;99555.56;;;9.01;86.72
63088;BME280;49173;43.164;27.786;2022-11-18T06:04:49;99557.13;;;9.05;86.90
63088;BME280;49173;43.164;27.786;2022-11-18T06:07:31;99564.88;;;9.10;87.03
63088;BME280;49173;43.164;27.786;2022-11-18T06:09:59;99565.63;;;9.12;87.11
63088;BME280;49173;43.164;27.786;2022-11-18T06:12:29;99558.25;;;9.15;87.10
63088;BME280;49173;43.164;27.786;2022-11-18T06:15:31;99562.59;;;9.18;87.15
63088;BME280;49173;43.164;27.786;2022-11-18T06:18:09;99570.31;;;9.22;87.03
63088;BME280;49173;43.164;27.786;2022-11-18T06:20:38;99572.06;;;9.23;87.20
63088;BME280;49173;43.164;27.786;2022-11-18T06:23:05;99574.53;;;9.26;87.34
63088;BME280;49173;43.164;27.786;2022-11-18T06:25:31;99568.09;;;9.29;87.31
63088;BME280;49173;43.164;27.786;2022-11-18T06:27:59;99565.91;;;9.35;87.10
63088;BME280;49173;43.164;27.786;2022-11-18T06:30:27;99564.78;;;9.40;86.94
63088;BME280;49173;43.164;27.786;2022-11-18T06:32:52;99568.09;;;9.43;87.10
63088;BME280;49173;43.164;27.786;2022-11-18T06:35:18;99565.25;;;9.46;87.17
63088;BME280;49173;43.164;27.786;2022-11-18T06:37:45;99559.56;;;9.51;87.55
63088;BME280;49173;43.164;27.786;2022-11-18T06:40:11;99561.13;;;9.55;87.84
63088;BME280;49173;43.164;27.786;2022-11-18T06:42:38;99559.88;;;9.60;88.00
63088;BME280;49173;43.164;27.786;2022-11-18T06:45:22;99570.97;;;9.69;88.50
63088;BME280;49173;43.164;27.786;2022-11-18T06:47:48;99564.03;;;9.79;89.38
63088;BME280;49173;43.164;27.786;2022-11-18T06:50:14;99564.09;;;9.91;89.99
63088;BME280;49173;43.164;27.786;2022-11-18T06:52:40;99569.53;;;10.04;90.35
63088;BME280;49173;43.164;27.786;2022-11-18T06:55:07;99559.50;;;10.21;90.65
63088;BME280;49173;43.164;27.786;2022-11-18T06:57:35;99557.75;;;10.34;89.93
63088;BME280;49173;43.164;27.786;2022-11-18T07:00:02;99557.69;;;10.48;88.34
63088;BME280;49173;43.164;27.786;2022-11-18T07:02:28;99556.66;;;10.63;87.62
63088;BME280;49173;43.164;27.786;2022-11-18T07:04:53;99554.75;;;10.78;87.67
63088;BME280;49173;43.164;27.786;2022-11-18T07:07:19;99558.31;;;10.91;88.54
63088;BME280;49173;43.164;27.786;2022-11-18T07:09:45;99568.44;;;11.00;88.15
63088;BME280;49173;43.164;27.786;2022-11-18T07:12:11;99554.34;;;11.10;88.08
63088;BME280;49173;43.164;27.786;2022-11-18T07:14:37;99544.47;;;11.23;88.95
63088;BME280;49173;43.164;27.786;2022-11-18T07:17:03;99557.34;;;11.31;88.32
63088;BME280;49173;43.164;27.786;2022-11-18T07:19:28;99548.13;;;11.35;87.79
63088;BME280;49173;43.164;27.786;2022-11-18T07:21:54;99549.59;;;11.39;87.47
63088;BME280;49173;43.164;27.786;2022-11-18T07:24:21;99550.25;;;11.42;86.99
63088;BME280;49173;43.164;27.786;2022-11-18T07:26:47;99545.63;;;11.44;86.18
63088;BME280;49173;43.164;27.786;2022-11-18T07:29:12;99537.56;;;11.44;85.98
63088;BME280;49173;43.164;27.786;2022-11-18T07:31:38;99533.03;;;11.45;85.80
63088;BME280;49173;43.164;27.786;2022-11-18T07:34:08;99527.66;;;11.45;84.92
63088;BME280;49173;43.164;27.786;2022-11-18T07:36:35;99532.06;;;11.46;84.56
63088;BME280;49173;43.164;27.786;2022-11-18T07:39:02;99527.44;;;11.48;83.46
63088;BME280;49173;43.164;27.786;2022-11-18T07:41:29;99519.16;;;11.51;82.92
63088;BME280;49173;43.164;27.786;2022-11-18T07:43:58;99522.72;;;11.51;83.00
63088;BME280;49173;43.164;27.786;2022-11-18T07:46:32;99527.66;;;11.58;81.62
63088;BME280;49173;43.164;27.786;2022-11-18T07:49:00;99522.16;;;11.59;82.23
63088;BME280;49173;43.164;27.786;2022-11-18T07:51:28;99515.13;;;11.69;82.54
63088;BME280;49173;43.164;27.786;2022-11-18T07:53:55;99514.25;;;11.81;82.53
63088;BME280;49173;43.164;27.786;2022-11-18T07:56:22;99513.50;;;11.92;82.40
63088;BME280;49173;43.164;27.786;2022-11-18T07:58:52;99514.63;;;12.01;82.13
63088;BME280;49173;43.164;27.786;2022-11-18T08:01:22;99516.00;;;12.06;82.18
63088;BME280;49173;43.164;27.786;2022-11-18T08:03:49;99515.66;;;12.11;82.39
63088;BME280;49173;43.164;27.786;2022-11-18T08:06:17;99526.19;;;12.14;82.32
63088;BME280;49173;43.164;27.786;2022-11-18T08:08:43;99526.59;;;12.21;82.65
63088;BME280;49173;43.164;27.786;2022-11-18T08:11:13;99535.66;;;12.31;82.44
63088;BME280;49173;43.164;27.786;2022-11-18T08:13:39;99526.28;;;12.36;82.75
63088;BME280;49173;43.164;27.786;2022-11-18T08:16:12;99530.63;;;12.50;82.81
63088;BME280;49173;43.164;27.786;2022-11-18T08:18:38;99530.88;;;12.58;81.92
63088;BME280;49173;43.164;27.786;2022-11-18T08:21:04;99524.91;;;12.66;81.96
63088;BME280;49173;43.164;27.786;2022-11-18T08:23:30;99533.63;;;12.70;81.23
63088;BME280;49173;43.164;27.786;2022-11-18T08:26:22;99530.28;;;12.66;80.33
63088;BME280;49173;43.164;27.786;2022-11-18T08:28:49;99522.22;;;12.66;80.85
63088;BME280;49173;43.164;27.786;2022-11-18T08:31:18;99525.16;;;12.63;80.86
63088;BME280;49173;43.164;27.786;2022-11-18T08:33:44;99526.13;;;12.62;81.25
63088;BME280;49173;43.164;27.786;2022-11-18T08:36:15;99533.00;;;12.66;81.41
63088;BME280;49173;43.164;27.786;2022-11-18T08:38:41;99522.00;;;12.69;81.56
63088;BME280;49173;43.164;27.786;2022-11-18T08:41:11;99523.47;;;12.73;81.89
63088;BME280;49173;43.164;27.786;2022-11-18T08:43:39;99521.28;;;12.78;81.57
63088;BME280;49173;43.164;27.786;2022-11-18T08:46:05;99527.28;;;12.82;81.43
63088;BME280;49173;43.164;27.786;2022-11-18T08:48:31;99531.09;;;12.90;81.68
63088;BME280;49173;43.164;27.786;2022-11-18T08:50:58;99519.34;;;13.03;81.44
63088;BME280;49173;43.164;27.786;2022-11-18T08:53:24;99522.78;;;13.16;80.82
63088;BME280;49173;43.164;27.786;2022-11-18T08:55:56;99520.16;;;13.27;80.21
63088;BME280;49173;43.164;27.786;2022-11-18T08:58:23;99528.97;;;13.40;80.15
63088;BME280;49173;43.164;27.786;2022-11-18T09:00:49;99526.13;;;13.64;81.75
63088;BME280;49173;43.164;27.786;2022-11-18T09:03:17;99523.53;;;13.85;82.25
63088;BME280;49173;43.164;27.786;2022-11-18T09:05:43;99522.47;;;14.09;84.10
63088;BME280;49173;43.164;27.786;2022-11-18T09:08:09;99519.63;;;14.21;84.63
63088;BME280;49173;43.164;27.786;2022-11-18T09:10:36;99524.13;;;14.32;84.89
63088;BME280;49173;43.164;27.786;2022-11-18T09:13:03;99510.97;;;14.39;83.94
63088;BME280;49173;43.164;27.786;2022-11-18T09:15:29;99508.88;;;14.42;82.53
63088;BME280;49173;43.164;27.786;2022-11-18T09:17:56;99506.88;;;14.44;82.60
63088;BME280;49173;43.164;27.786;2022-11-18T09:20:23;99500.88;;;14.52;83.64
63088;BME280;49173;43.164;27.786;2022-11-18T09:22:48;99499.47;;;14.57;83.62
63088;BME280;49173;43.164;27.786;2022-11-18T09:25:14;99501.66;;;14.64;82.43
63088;BME280;49173;43.164;27.786;2022-11-18T09:27:40;99495.28;;;14.65;82.22
63088;BME280;49173;43.164;27.786;2022-11-18T09:30:06;99493.91;;;14.70;81.92
63088;BME280;49173;43.164;27.786;2022-11-18T09:32:33;99489.97;;;14.74;81.62
63088;BME280;49173;43.164;27.786;2022-11-18T09:34:59;99479.06;;;14.86;82.24
63088;BME280;49173;43.164;27.786;2022-11-18T09:37:24;99484.53;;;14.95;81.03
63088;BME280;49173;43.164;27.786;2022-11-18T09:39:50;99481.31;;;15.01;80.43
63088;BME280;49173;43.164;27.786;2022-11-18T09:45:37;99475.63;;;15.04;80.95
63088;BME280;49173;43.164;27.786;2022-11-18T09:48:18;99463.81;;;15.05;81.91
63088;BME280;49173;43.164;27.786;2022-11-18T09:50:45;99454.47;;;15.09;82.35
63088;BME280;49173;43.164;27.786;2022-11-18T09:53:22;99445.81;;;15.16;82.19
63088;BME280;49173;43.164;27.786;2022-11-18T09:55:50;99437.28;;;15.20;82.24
63088;BME280;49173;43.164;27.786;2022-11-18T09:58:31;99442.75;;;15.30;81.70
63088;BME280;49173;43.164;27.786;2022-11-18T10:00:59;99439.34;;;15.37;81.30
63088;BME280;49173;43.164;27.786;2022-11-18T10:03:30;99423.97;;;15.38;81.42
63088;BME280;49173;43.164;27.786;2022-11-18T10:06:23;99433.09;;;15.37;81.41
63088;BME280;49173;43.164;27.786;2022-11-18T10:14:55;99414.88;;;15.49;81.31
63088;BME280;49173;43.164;27.786;2022-11-18T10:20:16;99411.63;;;15.55;80.75
63088;BME280;49173;43.164;27.786;2022-11-18T10:25:19;99409.84;;;15.65;80.54
63088;BME280;49173;43.164;27.786;2022-11-18T10:27:47;99408.41;;;15.71;80.53
63088;BME280;49173;43.164;27.786;2022-11-18T10:35:48;99397.88;;;15.77;79.74
63088;BME280;49173;43.164;27.786;2022-11-18T10:41:00;99387.47;;;15.92;79.96
63088;BME280;49173;43.164;27.786;2022-11-18T10:43:50;99379.22;;;16.03;79.38
63088;BME280;49173;43.164;27.786;2022-11-18T10:46:24;99391.50;;;16.07;79.09
63088;BME280;49173;43.164;27.786;2022-11-18T10:51:40;99397.31;;;16.22;78.60
63088;BME280;49173;43.164;27.786;2022-11-18T11:02:21;99386.97;;;16.55;76.79
63088;BME280;49173;43.164;27.786;2022-11-18T11:04:50;99390.53;;;16.55;76.88
63088;BME280;49173;43.164;27.786;2022-11-18T11:10:17;99375.72;;;16.59;76.00
63088;BME280;49173;43.164;27.786;2022-11-18T11:12:51;99369.03;;;16.63;75.92
63088;BME280;49173;43.164;27.786;2022-11-18T11:15:38;99365.44;;;16.63;75.95
63088;BME280;49173;43.164;27.786;2022-11-18T11:18:13;99365.44;;;16.63;75.54
63088;BME280;49173;43.164;27.786;2022-11-18T11:20:59;99371.72;;;16.63;75.40
63088;BME280;49173;43.164;27.786;2022-11-18T11:23:25;99366.44;;;16.62;75.10
63088;BME280;49173;43.164;27.786;2022-11-18T11:26:03;99364.75;;;16.70;75.15
63088;BME280;49173;43.164;27.786;2022-11-18T11:31:35;99349.72;;;16.76;74.34
63088;BME280;49173;43.164;27.786;2022-11-18T11:34:15;99341.75;;;16.74;74.97
63088;BME280;49173;43.164;27.786;2022-11-18T11:42:31;99335.31;;;16.85;74.58
63088;BME280;49173;43.164;27.786;2022-11-18T11:47:47;99336.34;;;17.02;75.17
63088;BME280;49173;43.164;27.786;2022-11-18T11:50:35;99331.19;;;17.09;74.44
63088;BME280;49173;43.164;27.786;2022-11-18T11:56:17;99316.44;;;17.21;73.44
63088;BME280;49173;43.164;27.786;2022-11-18T11:59:45;99316.50;;;17.29;72.89
63088;BME280;49173;43.164;27.786;2022-11-18T12:07:55;99308.47;;;17.37;72.26
63088;BME280;49173;43.164;27.786;2022-11-18T12:13:42;99302.03;;;17.20;73.03
63088;BME280;49173;43.164;27.786;2022-11-18T12:19:15;99292.44;;;16.98;74.44
63088;BME280;49173;43.164;27.786;2022-11-18T12:26:45;99278.25;;;16.87;74.27
63088;BME280;49173;43.164;27.786;2022-11-18T12:31:43;99276.53;;;16.86;74.42
63088;BME280;49173;43.164;27.786;2022-11-18T12:36:44;99278.84;;;16.81;74.68
63088;BME280;49173;43.164;27.786;2022-11-18T12:42:48;99283.94;;;16.84;74.77
63088;BME280;49173;43.164;27.786;2022-11-18T12:48:29;99274.84;;;16.85;75.63
63088;BME280;49173;43.164;27.786;2022-11-18T12:51:01;99263.38;;;16.91;75.64
63088;BME280;49173;43.164;27.786;2022-11-18T12:55:53;99258.31;;;17.06;76.97
63088;BME280;49173;43.164;27.786;2022-11-18T12:58:22;99251.09;;;17.14;76.95
63088;BME280;49173;43.164;27.786;2022-11-18T13:00:48;99252.81;;;17.15;76.80
63088;BME280;49173;43.164;27.786;2022-11-18T13:03:25;99262.81;;;17.15;76.33
63088;BME280;49173;43.164;27.786;2022-11-18T13:05:58;99250.09;;;17.15;76.49
63088;BME280;49173;43.164;27.786;2022-11-18T13:08:26;99250.63;;;17.19;76.15
63088;BME280;49173;43.164;27.786;2022-11-18T13:10:56;99260.50;;;17.20;76.23
63088;BME280;49173;43.164;27.786;2022-11-18T13:13:43;99265.59;;;17.23;76.27
63088;BME280;49173;43.164;27.786;2022-11-18T13:16:23;99261.19;;;17.22;76.62
63088;BME280;49173;43.164;27.786;2022-11-18T13:19:08;99266.28;;;17.25;76.82
63088;BME280;49173;43.164;27.786;2022-11-18T13:21:35;99269.16;;;17.23;76.71
63088;BME280;49173;43.164;27.786;2022-11-18T13:24:21;99261.72;;;17.25;76.76
63088;BME280;49173;43.164;27.786;2022-11-18T13:26:52;99256.06;;;17.19;76.77
63088;BME280;49173;43.164;27.786;2022-11-18T13:29:45;99263.66;;;17.15;76.79
63088;BME280;49173;43.164;27.786;2022-11-18T13:32:19;99259.00;;;17.08;77.27
63088;BME280;49173;43.164;27.786;2022-11-18T13:34:51;99253.56;;;17.08;77.43
63088;BME280;49173;43.164;27.786;2022-11-18T13:37:24;99253.88;;;17.05;77.55
63088;BME280;49173;43.164;27.786;2022-11-18T13:39:50;99257.91;;;17.00;78.18
63088;BME280;49173;43.164;27.786;2022-11-18T13:42:24;99262.50;;;16.90;78.48
63088;BME280;49173;43.164;27.786;2022-11-18T13:44:55;99264.28;;;16.82;79.17
63088;BME280;49173;43.164;27.786;2022-11-18T13:47:28;99264.72;;;16.77;79.61
63088;BME280;49173;43.164;27.786;2022-11-18T13:56:23;99261.44;;;16.46;81.71
63088;BME280;49173;43.164;27.786;2022-11-18T13:58:56;99257.44;;;16.40;82.72
63088;BME280;49173;43.164;27.786;2022-11-18T14:01:32;99263.63;;;16.33;83.77
63088;BME280;49173;43.164;27.786;2022-11-18T14:04:06;99264.34;;;16.25;84.02
63088;BME280;49173;43.164;27.786;2022-11-18T14:06:40;99271.19;;;16.19;84.01
63088;BME280;49173;43.164;27.786;2022-11-18T14:09:29;99264.97;;;16.09;84.75
63088;BME280;49173;43.164;27.786;2022-11-18T14:12:02;99262.53;;;16.06;84.92
63088;BME280;49173;43.164;27.786;2022-11-18T14:14:35;99261.16;;;16.02;85.04
63088;BME280;49173;43.164;27.786;2022-11-18T14:17:17;99265.44;;;15.95;85.41
63088;BME280;49173;43.164;27.786;2022-11-18T14:19:45;99266.28;;;15.96;85.72
63088;BME280;49173;43.164;27.786;2022-11-18T14:22:23;99253.50;;;15.88;85.80
63088;BME280;49173;43.164;27.786;2022-11-18T14:27:50;99252.09;;;15.74;86.10
63088;BME280;49173;43.164;27.786;2022-11-18T14:33:14;99232.28;;;15.64;86.98
63088;BME280;49173;43.164;27.786;2022-11-18T14:35:43;99231.97;;;15.57;87.31
63088;BME280;49173;43.164;27.786;2022-11-18T14:38:20;99230.16;;;15.58;87.77
63088;BME280;49173;43.164;27.786;2022-11-18T14:40:56;99233.44;;;15.52;88.40
63088;BME280;49173;43.164;27.786;2022-11-18T14:43:23;99229.59;;;15.45;89.68
63088;BME280;49173;43.164;27.786;2022-11-18T14:45:52;99225.59;;;15.49;90.19
63088;BME280;49173;43.164;27.786;2022-11-18T14:48:21;99227.59;;;15.47;90.45
63088;BME280;49173;43.164;27.786;2022-11-18T14:50:47;99223.34;;;15.44;90.39
63088;BME280;49173;43.164;27.786;2022-11-18T14:53:13;99224.31;;;15.43;90.76
63088;BME280;49173;43.164;27.786;2022-11-18T14:55:39;99217.19;;;15.42;91.13
63088;BME280;49173;43.164;27.786;2022-11-18T14:58:13;99217.06;;;15.44;91.55
63088;BME280;49173;43.164;27.786;2022-11-18T15:00:41;99212.78;;;15.41;91.68
63088;BME280;49173;43.164;27.786;2022-11-18T15:03:07;99209.06;;;15.42;91.77
63088;BME280;49173;43.164;27.786;2022-11-18T15:05:33;99211.50;;;15.45;91.73